Search for airport 
image banner adimage banner adimage banner ad
image banner ad

CL74 - Skyotee Ranch

Located in Rosamond, United States

ICAO - CL74, IATA -

Data provided by Airmate  

General information

Coordinates: N34°49'55" W118°24'3"
Elevation is 2600 feet MSL.
Magnetic variation is 14° East
View others Airports in California

Operational data

Special qualification required
Current time UTC:
Current local time:
Weather at : KWJF - General Wm J Fox Airfield ( 19 km )
METAR: KWJF 240856Z AUTO 31006KT 10SM CLR 20/06 A3000 RMK AO2 SLP139 T02000056 56000
TAF: KWJF 240601Z 2406/2506 03010KT P6SM SKC FM240800 25012KT P6SM SKC FM242000 22019G27KT P6SM SKC FM250400 25012KT P6SM SKC
View NOTAMs / SUP AIP / TFR affecting this airport [VIEW]
Communications frequencies: [VIEW]

Runways:

RWY identifierQFULength (ft)Width (ft)SurfaceLDA (ft)
072600100EARTH
252600100EARTH

Airport contact information

Address: Rosamond United States

Satellite view of CL74